Double Springs, AL (35553)

6:18 AM CST on November 23, 2014 (GMT -0600)
White Oak Creek / Lewis Smith Lake | Change Station
CLOSE
Current Station
Personal Weather Station
Location: Arley, AL
Elevation: 523 ft
Nearby Weather Stations

Elev 523 ft 34.08 °N, 87.13 °W | Updated 2 seconds ago

Overcast
Overcast
60.1 °F
Feels Like 60.1 °F
N
7.6
Wind Variable Wind from SE
Gusts 9.8 mph

Today
High -- | Low -- °F
--% Chance of Precip.
Yesterday
High -- | Low -- °F
Precip. -- in
6:29 AM 4:41 PM
New Moon, 1% visible
Pressure 29.93 in
Visibility 3.0 miles
Clouds Overcast 400 ft
Dew Point 60 °F
Humidity 99%
Rainfall 0.02 in
Snow Depth Not available.
UV 0 out of 12
Pollen .10 out of 12
Air Quality Not available.
Flu Activity Not available.
METAR K1M4 231156Z AUTO 13012G18KT 3SM BR OVC004 12/12 A2989 RMK AO2 56020 60000 T01220122 10138 20116 SLP134

More Conditions Fewer Conditions

Pressure 29.93 in
Visibility 3.0 miles
Clouds Overcast 400 ft
Dew Point 60 °F
Humidity 99%
Rainfall 0.02 in
Snow Depth Not available.
UV 0 out of 12
Pollen .10 out of 12
Air Quality Not available.
Flu Activity Not available.
METAR K1M4 231156Z AUTO 13012G18KT 3SM BR OVC004 12/12 A2989 RMK AO2 56020 60000 T01220122 10138 20116 SLP134

More Conditions Fewer Conditions

10-Day Weather Forecast

Almanac

Astronomy

Nov. 23, 2014 Rise Set
Actual Time
Civil Twilight
Nautical Twilight
Astronomical Twilight
Moon
Length of Visible Light
Length of Day
Tomorrow will be .
, % of the Moon is Illuminated

Today's Extremes

State Highs State Lows

Community

WunderPhotos

Upload Photos

1,773,041 photos uploaded!

WunderBlogs® & News

Nearby

Air Quality

  Air Quality AQ Index Pollutant
Not available.

Snow Depth

Station Depth Elevation

Earthquake Activity

City Distance Mag. Time & Date
Minimum magnitude displayed is 2.5.

Coastal Water Temperatures

Place Temperature

Nearby Weather Stations